createdAt,value
2022-09-09T00:02:04.328Z,4.28
2022-09-09T00:04:35.041Z,3.58
2022-09-09T00:07:06.865Z,3.72
2022-09-09T00:09:47.267Z,3.90
2022-09-09T00:12:19.102Z,3.50
2022-09-09T00:14:56.322Z,4.40
2022-09-09T00:17:37.239Z,4.72
2022-09-09T00:20:13.059Z,3.72
2022-09-09T00:22:48.004Z,3.65
2022-09-09T00:25:30.439Z,3.70
2022-09-09T00:27:58.563Z,3.83
2022-09-09T00:30:32.644Z,4.13
2022-09-09T00:33:03.768Z,4.10
2022-09-09T00:35:36.118Z,3.55
2022-09-09T00:38:14.702Z,3.85
2022-09-09T00:40:51.246Z,3.20
2022-09-09T00:43:28.695Z,3.53
2022-09-09T00:46:16.741Z,3.70
2022-09-09T00:48:53.959Z,3.30
2022-09-09T00:51:31.573Z,3.50
2022-09-09T00:54:20.602Z,3.70
2022-09-09T00:57:00.247Z,3.75
2022-09-09T00:59:46.722Z,4.20
2022-09-09T01:02:27.693Z,3.72
2022-09-09T01:04:55.829Z,4.07
2022-09-09T01:07:25.044Z,4.50
2022-09-09T01:09:59.140Z,4.07
2022-09-09T01:12:33.858Z,4.40
2022-09-09T01:15:10.687Z,4.90
2022-09-09T01:17:50.908Z,4.35
2022-09-09T01:20:24.790Z,4.00
2022-09-09T01:23:13.733Z,3.78
2022-09-09T01:26:13.964Z,3.90
2022-09-09T01:28:44.876Z,4.05
2022-09-09T01:31:17.312Z,3.58
2022-09-09T01:33:46.458Z,3.88
2022-09-09T01:36:20.335Z,3.42
2022-09-09T01:38:48.484Z,3.28
2022-09-09T01:41:19.179Z,3.80
2022-09-09T01:43:47.433Z,3.70
2022-09-09T01:46:15.914Z,3.60
2022-09-09T01:48:45.216Z,3.50
2022-09-09T01:51:13.150Z,3.55
2022-09-09T01:53:45.336Z,3.70
2022-09-09T01:56:24.501Z,3.42
2022-09-09T01:59:09.746Z,3.40
2022-09-09T02:01:55.431Z,3.58
2022-09-09T02:04:37.768Z,3.58
2022-09-09T02:07:16.248Z,3.25
2022-09-09T02:09:49.137Z,3.30
2022-09-09T02:12:22.548Z,3.58
2022-09-09T02:14:56.985Z,3.55
2022-09-09T02:17:32.638Z,3.33
2022-09-09T02:20:07.018Z,3.28
2022-09-09T02:22:36.911Z,2.90
2022-09-09T02:27:37.077Z,3.30
2022-09-09T02:30:08.609Z,3.20
2022-09-09T02:32:40.644Z,3.42
2022-09-09T02:35:15.357Z,3.38
2022-09-09T02:37:47.814Z,3.35
2022-09-09T02:40:17.601Z,3.45
2022-09-09T02:45:19.827Z,3.42
2022-09-09T02:47:55.321Z,3.65
2022-09-09T02:50:28.211Z,4.00
2022-09-09T02:53:08.734Z,3.58
2022-09-09T02:55:43.144Z,4.20
2022-09-09T02:58:17.998Z,3.83
2022-09-09T03:00:48.283Z,4.00
2022-09-09T03:03:18.326Z,3.58
2022-09-09T03:05:47.017Z,3.22
2022-09-09T03:08:15.252Z,3.50
2022-09-09T03:10:45.428Z,3.45
2022-09-09T03:13:17.851Z,3.30
2022-09-09T03:15:46.317Z,3.88
2022-09-09T03:18:14.446Z,3.42
2022-09-09T03:20:44.083Z,3.70
2022-09-09T03:23:15.614Z,4.05
2022-09-09T03:25:49.210Z,3.92
2022-09-09T03:28:18.727Z,4.03
2022-09-09T03:30:47.118Z,3.58
2022-09-09T03:33:15.976Z,3.50
2022-09-09T03:38:18.115Z,3.83
2022-09-09T03:40:52.352Z,3.78
2022-09-09T03:43:28.844Z,4.03
2022-09-09T03:45:58.023Z,4.30
2022-09-09T03:48:28.976Z,4.03
2022-09-09T03:50:58.916Z,5.13
2022-09-09T03:55:57.094Z,4.25
2022-09-09T03:58:27.739Z,4.50
2022-09-09T04:00:57.703Z,4.60
2022-09-09T04:05:59.191Z,4.40
2022-09-09T04:08:27.942Z,4.20
2022-09-09T04:10:58.988Z,4.68
2022-09-09T04:13:31.112Z,4.75
2022-09-09T04:16:02.020Z,4.22
2022-09-09T04:18:30.512Z,4.53
2022-09-09T04:20:59.410Z,4.38
2022-09-09T04:23:30.537Z,4.07
2022-09-09T04:26:00.029Z,5.65
2022-09-09T04:28:31.469Z,4.95
2022-09-09T04:31:07.773Z,5.00
2022-09-09T04:33:40.161Z,4.60
2022-09-09T04:36:09.593Z,5.15
2022-09-09T04:38:40.373Z,4.97
2022-09-09T04:41:12.260Z,5.57
2022-09-09T04:43:43.770Z,5.63
2022-09-09T04:46:13.991Z,5.45
2022-09-09T04:48:44.338Z,6.35
2022-09-09T04:51:17.688Z,5.22
2022-09-09T04:53:47.941Z,5.50
2022-09-09T04:56:19.790Z,5.45
2022-09-09T04:58:52.640Z,5.78
2022-09-09T05:01:23.072Z,5.80
2022-09-09T05:03:58.848Z,5.38
2022-09-09T05:06:28.333Z,6.10
2022-09-09T05:08:56.532Z,5.80
2022-09-09T05:11:26.923Z,5.88
2022-09-09T05:13:57.745Z,6.38
2022-09-09T05:16:28.327Z,6.20
2022-09-09T05:18:56.775Z,6.28
2022-09-09T05:21:27.380Z,5.80
2022-09-09T05:23:56.945Z,5.20
2022-09-09T05:26:27.153Z,5.18
2022-09-09T05:28:57.138Z,4.93
2022-09-09T05:31:28.921Z,4.93
2022-09-09T05:34:05.253Z,5.60
2022-09-09T05:36:34.455Z,5.05
2022-09-09T05:39:06.930Z,5.00
2022-09-09T05:41:36.555Z,4.85
2022-09-09T05:44:07.062Z,4.63
2022-09-09T05:46:35.185Z,4.80
2022-09-09T05:49:06.526Z,4.60
2022-09-09T05:51:35.541Z,4.60
2022-09-09T05:54:06.096Z,4.18
2022-09-09T05:56:37.883Z,4.35
2022-09-09T05:59:09.431Z,4.47
2022-09-09T06:01:41.611Z,3.67
2022-09-09T06:04:10.815Z,3.60
2022-09-09T06:06:40.928Z,3.22
2022-09-09T06:09:11.605Z,3.13
2022-09-09T06:11:42.233Z,1.90
2022-09-09T06:14:12.426Z,2.35
2022-09-09T06:16:50.742Z,2.15
2022-09-09T06:19:18.926Z,2.60
2022-09-09T06:21:51.335Z,2.10
2022-09-09T06:24:21.105Z,2.03
2022-09-09T06:26:56.242Z,2.30
2022-09-09T06:29:25.920Z,2.20
2022-09-09T06:31:53.949Z,1.85
2022-09-09T06:34:24.074Z,1.50
2022-09-09T06:36:53.459Z,1.60
2022-09-09T06:39:22.526Z,1.45
2022-09-09T06:41:54.067Z,1.73
2022-09-09T06:44:28.842Z,1.83
2022-09-09T06:46:59.348Z,1.75
2022-09-09T06:49:27.587Z,1.70
2022-09-09T06:51:55.566Z,1.70
2022-09-09T06:54:24.714Z,1.60
2022-09-09T06:56:53.023Z,1.70
2022-09-09T06:59:20.961Z,1.45
2022-09-09T07:01:55.568Z,1.40
2022-09-09T07:04:24.165Z,1.73
2022-09-09T07:06:53.500Z,1.48
2022-09-09T07:09:22.468Z,1.58
2022-09-09T07:11:53.771Z,1.95
2022-09-09T07:14:23.650Z,1.50
2022-09-09T07:16:55.438Z,1.58
2022-09-09T07:19:26.812Z,1.50
2022-09-09T07:21:54.765Z,1.50
2022-09-09T07:24:23.989Z,1.43
2022-09-09T07:26:53.052Z,1.73
2022-09-09T07:29:21.364Z,1.40
2022-09-09T07:31:52.048Z,1.50
2022-09-09T07:34:20.421Z,1.88
2022-09-09T07:36:49.767Z,1.58
2022-09-09T07:39:18.943Z,1.50
2022-09-09T07:41:48.283Z,1.40
2022-09-09T07:44:18.384Z,1.33
2022-09-09T07:46:47.143Z,1.25
2022-09-09T07:49:17.030Z,1.10
2022-09-09T07:51:47.526Z,1.50
2022-09-09T07:54:16.975Z,1.08
2022-09-09T07:56:44.906Z,1.10
2022-09-09T07:59:13.090Z,1.33
2022-09-09T08:01:44.699Z,1.30
2022-09-09T08:04:16.079Z,1.33
2022-09-09T08:06:47.590Z,1.27
2022-09-09T08:09:16.009Z,1.30
2022-09-09T08:11:45.049Z,1.17
2022-09-09T08:14:13.830Z,1.10
2022-09-09T08:16:43.862Z,1.27
2022-09-09T08:19:11.751Z,1.10
2022-09-09T08:21:41.995Z,1.05
2022-09-09T08:24:13.043Z,1.33
2022-09-09T08:26:43.539Z,1.10
2022-09-09T08:29:12.906Z,1.20
2022-09-09T08:31:43.246Z,1.02
2022-09-09T08:34:11.630Z,1.48
2022-09-09T08:36:43.309Z,1.30
2022-09-09T08:39:14.702Z,1.27
2022-09-09T08:42:04.143Z,1.33
2022-09-09T08:44:48.989Z,1.23
2022-09-09T08:47:23.859Z,1.00
2022-09-09T08:50:05.645Z,0.93
2022-09-09T08:52:41.126Z,1.23
2022-09-09T08:55:24.346Z,1.08
2022-09-09T08:57:55.475Z,1.23
2022-09-09T09:00:25.299Z,1.23
2022-09-09T09:05:33.689Z,1.08
2022-09-09T09:08:09.874Z,0.80
2022-09-09T09:10:48.773Z,1.10
2022-09-09T09:13:23.044Z,1.20
2022-09-09T09:15:58.451Z,0.98
2022-09-09T09:18:26.505Z,1.20
2022-09-09T09:21:05.988Z,1.10
2022-09-09T09:23:40.556Z,1.23
2022-09-09T09:26:12.760Z,1.20
2022-09-09T09:28:42.259Z,1.08
2022-09-09T09:31:12.948Z,1.27
2022-09-09T09:33:49.141Z,1.00
2022-09-09T09:36:18.037Z,0.93
2022-09-09T09:41:48.325Z,1.00
2022-09-09T09:44:29.105Z,1.00
2022-09-09T09:47:08.967Z,1.10
2022-09-09T09:49:37.045Z,1.10
2022-09-09T09:52:06.206Z,1.15
2022-09-09T09:54:39.146Z,0.90
2022-09-09T09:57:13.801Z,1.42
2022-09-09T09:59:42.152Z,1.63
2022-09-09T10:02:19.253Z,1.88
2022-09-09T10:04:48.606Z,1.50
2022-09-09T10:07:21.355Z,2.00
2022-09-09T10:09:54.348Z,1.70
2022-09-09T10:12:35.282Z,1.77
2022-09-09T10:15:34.358Z,1.75
2022-09-09T10:18:18.070Z,1.70
2022-09-09T10:20:53.181Z,1.30
2022-09-09T10:23:46.366Z,0.90
2022-09-09T10:26:31.088Z,0.85
2022-09-09T10:29:26.419Z,1.10
2022-09-09T10:32:03.961Z,1.27
2022-09-09T10:34:53.458Z,1.70
2022-09-09T10:37:38.839Z,1.50
2022-09-09T10:40:27.094Z,1.65
2022-09-09T10:42:59.361Z,1.58
2022-09-09T10:45:38.134Z,1.90
2022-09-09T10:48:31.771Z,1.83
2022-09-09T10:51:13.061Z,1.77
2022-09-09T10:53:53.227Z,2.20
2022-09-09T10:56:24.606Z,1.50
2022-09-09T10:58:55.585Z,1.70
2022-09-09T11:01:28.436Z,1.38
2022-09-09T11:03:59.873Z,1.70
2022-09-09T11:06:33.612Z,1.60
2022-09-09T11:09:04.117Z,1.40
2022-09-09T11:11:36.534Z,1.40
2022-09-09T11:14:11.278Z,1.40
2022-09-09T11:16:44.453Z,1.80
2022-09-09T11:19:19.285Z,1.80
2022-09-09T11:21:49.261Z,1.20
2022-09-09T11:24:23.595Z,1.40
2022-09-09T11:26:57.672Z,1.58
2022-09-09T11:29:46.023Z,1.33
2022-09-09T11:32:31.426Z,1.00
2022-09-09T11:35:12.032Z,1.20
2022-09-09T11:38:04.618Z,1.08
2022-09-09T11:40:34.215Z,1.30
2022-09-09T11:43:07.781Z,1.10
2022-09-09T11:45:37.196Z,1.98
2022-09-09T11:48:07.885Z,1.83
2022-09-09T11:50:39.340Z,1.35
2022-09-09T11:53:25.804Z,1.23
2022-09-09T11:56:09.242Z,1.27
2022-09-09T11:58:41.722Z,1.30
2022-09-09T12:01:31.003Z,1.38
2022-09-09T12:04:13.333Z,1.02
2022-09-09T12:06:46.546Z,1.00
2022-09-09T12:09:27.061Z,1.65
2022-09-09T12:12:06.885Z,1.63
2022-09-09T12:14:40.547Z,1.50
2022-09-09T12:17:23.060Z,1.50
2022-09-09T12:20:05.603Z,1.65
2022-09-09T12:22:39.755Z,1.67
2022-09-09T12:25:20.192Z,1.70
2022-09-09T12:28:03.478Z,1.90
2022-09-09T12:30:36.368Z,1.88
2022-09-09T12:33:09.537Z,1.88
2022-09-09T12:35:40.097Z,1.95
2022-09-09T12:38:12.482Z,1.70
2022-09-09T12:40:40.589Z,1.45
2022-09-09T12:43:20.680Z,1.33
2022-09-09T12:45:50.918Z,1.50
2022-09-09T12:48:22.173Z,1.30
2022-09-09T12:50:53.635Z,1.10
2022-09-09T12:53:27.276Z,1.45
2022-09-09T12:55:58.691Z,1.40
2022-09-09T12:58:29.277Z,1.52
2022-09-09T13:00:58.393Z,1.58
2022-09-09T13:03:26.820Z,1.48
2022-09-09T13:06:01.580Z,1.20
2022-09-09T13:08:29.474Z,1.73
2022-09-09T13:11:03.091Z,1.40
2022-09-09T13:13:36.097Z,1.77
2022-09-09T13:16:08.197Z,1.55
2022-09-09T13:18:39.618Z,1.70
2022-09-09T13:21:09.105Z,1.85
2022-09-09T13:26:08.757Z,1.58
2022-09-09T13:28:37.185Z,1.20
2022-09-09T13:31:08.058Z,1.20
2022-09-09T13:33:38.257Z,1.30
2022-09-09T13:36:09.767Z,1.20
2022-09-09T13:38:40.729Z,1.17
2022-09-09T13:41:10.374Z,1.60
2022-09-09T13:46:25.970Z,1.40
2022-09-09T13:48:57.885Z,1.52
2022-09-09T13:51:35.212Z,1.35
2022-09-09T13:54:03.323Z,1.23
2022-09-09T13:56:31.240Z,1.65
2022-09-09T13:58:59.374Z,1.20
2022-09-09T14:01:29.685Z,1.30
2022-09-09T14:03:58.234Z,1.63
2022-09-09T14:06:26.323Z,1.30
2022-09-09T14:08:55.716Z,1.30
2022-09-09T14:11:23.959Z,1.02
2022-09-09T14:13:52.103Z,1.33
2022-09-09T14:16:21.360Z,1.30
2022-09-09T14:18:49.447Z,1.33
2022-09-09T14:21:17.533Z,1.02
2022-09-09T14:23:45.597Z,1.50
2022-09-09T14:26:15.219Z,1.23
2022-09-09T14:28:59.062Z,1.10
2022-09-09T14:31:27.480Z,1.13
2022-09-09T14:33:55.818Z,1.23
2022-09-09T14:36:23.805Z,1.20
2022-09-09T14:38:51.773Z,1.38
2022-09-09T14:41:23.495Z,1.02
2022-09-09T14:43:52.653Z,1.20
2022-09-09T14:46:21.824Z,1.33
2022-09-09T14:48:50.391Z,1.40
2022-09-09T14:54:13.038Z,1.30
2022-09-09T14:56:42.463Z,1.30
2022-09-09T14:59:10.362Z,1.52
2022-09-09T15:01:38.977Z,1.10
2022-09-09T15:04:07.865Z,1.20
2022-09-09T15:06:40.065Z,1.20
2022-09-09T15:09:08.302Z,1.08
2022-09-09T15:11:38.972Z,1.35
2022-09-09T15:14:10.396Z,1.23
2022-09-09T15:16:39.169Z,1.10
2022-09-09T15:19:07.222Z,1.00
2022-09-09T15:21:37.778Z,1.17
2022-09-09T15:24:08.195Z,1.27
2022-09-09T15:26:39.569Z,2.85
2022-09-09T15:29:09.552Z,2.75
2022-09-09T15:31:38.321Z,1.48
2022-09-09T15:34:08.636Z,1.00
2022-09-09T15:36:38.369Z,1.13
2022-09-09T15:39:08.966Z,1.30
2022-09-09T15:41:37.132Z,1.23
2022-09-09T15:44:06.235Z,1.35
2022-09-09T15:46:38.304Z,1.37
2022-09-09T15:49:07.884Z,1.33
2022-09-09T15:51:42.655Z,1.27
2022-09-09T15:54:13.186Z,1.15
2022-09-09T15:56:42.404Z,0.98
2022-09-09T15:59:10.558Z,1.10
2022-09-09T16:01:41.701Z,1.00
2022-09-09T16:04:10.137Z,0.90
2022-09-09T16:06:38.622Z,1.00
2022-09-09T16:09:08.346Z,1.00
2022-09-09T16:11:38.533Z,0.88
2022-09-09T16:14:07.441Z,1.70
2022-09-09T16:16:37.010Z,2.95
2022-09-09T16:19:08.678Z,1.08
2022-09-09T16:21:40.621Z,1.33
2022-09-09T16:24:09.845Z,1.25
2022-09-09T16:26:40.706Z,1.00
2022-09-09T16:29:09.759Z,1.00
2022-09-09T16:31:38.349Z,1.10
2022-09-09T16:34:09.833Z,1.00
2022-09-09T16:36:39.957Z,1.10
2022-09-09T16:39:10.123Z,1.13
2022-09-09T16:41:38.728Z,1.30
2022-09-09T16:44:08.035Z,1.20
2022-09-09T16:46:37.663Z,1.10
2022-09-09T16:49:07.586Z,1.35
2022-09-09T16:54:08.103Z,1.42
2022-09-09T16:56:38.930Z,1.00
2022-09-09T16:59:10.623Z,0.80
2022-09-09T17:01:41.638Z,1.33
2022-09-09T17:04:11.721Z,0.70
2022-09-09T17:09:12.301Z,1.00
2022-09-09T17:14:10.407Z,1.45
2022-09-09T17:16:40.538Z,1.38
2022-09-09T17:19:10.028Z,1.50
2022-09-09T17:21:54.517Z,1.48
2022-09-09T17:24:28.117Z,1.50
2022-09-09T17:26:56.217Z,2.97
2022-09-09T17:29:24.214Z,1.70
2022-09-09T17:31:52.152Z,1.60
2022-09-09T17:34:20.136Z,1.27
2022-09-09T17:36:48.007Z,0.98
2022-09-09T17:39:15.971Z,1.20
2022-09-09T17:41:45.194Z,1.20
2022-09-09T17:44:14.270Z,1.25
2022-09-09T17:46:46.344Z,1.70
2022-09-09T17:49:16.513Z,1.67
2022-09-09T17:51:46.950Z,1.90
2022-09-09T17:54:17.383Z,1.77
2022-09-09T17:56:47.890Z,1.13
2022-09-09T17:59:19.582Z,1.20
2022-09-09T18:01:50.832Z,1.45
2022-09-09T18:04:19.904Z,1.30
2022-09-09T18:06:50.392Z,1.30
2022-09-09T18:09:20.944Z,1.20
2022-09-09T18:11:52.342Z,1.40
2022-09-09T18:14:24.651Z,1.67
2022-09-09T18:16:53.393Z,1.27
2022-09-09T18:21:51.418Z,1.38
2022-09-09T18:24:21.959Z,1.20
2022-09-09T18:26:52.089Z,1.13
2022-09-09T18:29:24.007Z,1.63
2022-09-09T18:31:53.067Z,1.73
2022-09-09T18:34:25.522Z,2.00
2022-09-09T18:36:55.941Z,1.98
2022-09-09T18:39:27.511Z,5.55
2022-09-09T18:41:59.388Z,3.53
2022-09-09T18:44:30.183Z,1.67
2022-09-09T18:46:58.337Z,1.10
2022-09-09T18:49:27.234Z,1.55
2022-09-09T18:51:56.507Z,1.00
2022-09-09T18:54:33.288Z,1.02
2022-09-09T18:57:03.765Z,1.30
2022-09-09T18:59:33.907Z,1.00
2022-09-09T19:02:01.963Z,1.30
2022-09-09T19:04:33.038Z,1.23
2022-09-09T19:07:00.958Z,1.60
2022-09-09T19:09:31.732Z,1.30
2022-09-09T19:12:00.906Z,1.92
2022-09-09T19:14:30.964Z,1.83
2022-09-09T19:19:29.202Z,1.90
2022-09-09T19:21:58.181Z,1.75
2022-09-09T19:24:34.228Z,1.90
2022-09-09T19:27:06.590Z,1.90
2022-09-09T19:29:39.370Z,1.70
2022-09-09T19:34:55.753Z,1.48
2022-09-09T19:37:23.802Z,1.85
2022-09-09T19:39:52.105Z,1.65
2022-09-09T19:42:20.479Z,1.90
2022-09-09T19:44:51.067Z,1.90
2022-09-09T19:47:20.399Z,1.60
2022-09-09T19:49:48.644Z,1.55
2022-09-09T19:52:17.511Z,1.70
2022-09-09T19:54:45.957Z,1.80
2022-09-09T20:04:41.556Z,1.60
2022-09-09T20:07:09.853Z,1.95
2022-09-09T20:09:37.766Z,1.67
2022-09-09T20:12:06.198Z,1.65
2022-09-09T20:14:39.166Z,1.60
2022-09-09T20:17:07.840Z,1.95
2022-09-09T20:19:38.671Z,2.10
2022-09-09T20:22:07.943Z,1.88
2022-09-09T20:24:36.991Z,1.90
2022-09-09T20:27:07.982Z,1.98
2022-09-09T20:29:37.083Z,2.15
2022-09-09T20:32:06.743Z,1.73
2022-09-09T20:34:34.766Z,1.45
2022-09-09T20:37:04.875Z,2.00
2022-09-09T20:39:33.242Z,1.80
2022-09-09T20:42:03.052Z,1.58
2022-09-09T20:44:31.284Z,1.70
2022-09-09T20:47:06.096Z,1.35
2022-09-09T20:49:35.204Z,1.92
2022-09-09T20:52:07.359Z,1.70
2022-09-09T20:54:37.483Z,1.48
2022-09-09T20:59:35.734Z,1.77
2022-09-09T21:02:04.424Z,2.00
2022-09-09T21:04:32.483Z,1.95
2022-09-09T21:07:00.540Z,2.20
2022-09-09T21:09:29.883Z,1.45
2022-09-09T21:11:57.782Z,1.77
2022-09-09T21:14:27.269Z,1.73
2022-09-09T21:16:55.404Z,1.65
2022-09-09T21:19:23.303Z,1.70
2022-09-09T21:21:51.280Z,1.85
2022-09-09T21:24:19.294Z,1.67
2022-09-09T21:26:50.314Z,2.00
2022-09-09T21:31:45.979Z,1.67
2022-09-09T21:34:15.421Z,1.70
2022-09-09T21:36:44.505Z,1.73
2022-09-09T21:39:13.727Z,1.60
2022-09-09T21:41:41.791Z,1.60
2022-09-09T21:44:11.712Z,1.60
2022-09-09T21:49:07.825Z,1.65
2022-09-09T21:51:35.710Z,2.03
2022-09-09T21:54:03.936Z,1.95
2022-09-09T21:56:32.071Z,2.10
2022-09-09T21:59:03.795Z,1.98
2022-09-09T22:01:34.128Z,1.70
2022-09-09T22:04:04.175Z,2.13
2022-09-09T22:09:01.925Z,2.03
2022-09-09T22:11:31.224Z,1.95
2022-09-09T22:13:59.229Z,1.90
2022-09-09T22:16:34.768Z,2.10
2022-09-09T22:19:02.827Z,2.10
2022-09-09T22:21:32.983Z,1.95
2022-09-09T22:24:05.955Z,2.20
2022-09-09T22:26:36.912Z,1.85
2022-09-09T22:29:05.522Z,1.98
2022-09-09T22:31:36.032Z,2.00
2022-09-09T22:34:04.839Z,2.40
2022-09-09T22:36:34.247Z,2.05
2022-09-09T22:39:02.344Z,2.38
2022-09-09T22:41:32.190Z,2.20
2022-09-09T22:46:29.160Z,2.10
2022-09-09T22:48:59.497Z,2.50
2022-09-09T22:51:27.512Z,2.15
2022-09-09T22:53:57.771Z,2.20
2022-09-09T22:56:28.178Z,2.60
2022-09-09T22:58:57.822Z,2.47
2022-09-09T23:01:27.718Z,2.53
2022-09-09T23:06:30.328Z,2.85
2022-09-09T23:09:00.291Z,2.95
2022-09-09T23:14:01.457Z,3.30
2022-09-09T23:19:00.829Z,3.15
2022-09-09T23:23:59.969Z,3.63
2022-09-09T23:26:29.902Z,3.20
2022-09-09T23:29:02.471Z,2.55
2022-09-09T23:31:33.842Z,2.88
2022-09-09T23:34:02.677Z,2.70
2022-09-09T23:36:32.632Z,2.30
2022-09-09T23:41:30.575Z,2.40
2022-09-09T23:44:00.807Z,2.75
2022-09-09T23:46:30.687Z,2.33
2022-09-09T23:49:00.146Z,2.47
2022-09-09T23:51:31.623Z,2.50
2022-09-09T23:54:02.920Z,2.90
2022-09-09T23:56:33.759Z,2.22
2022-09-09T23:59:01.908Z,2.25
